sensor_id;sensor_type;location;lat;lon;timestamp;temperature;humidity
41344;DHT22;27089;50.022;7.604;2023-02-23T00:00:24;8.90;99.90
41344;DHT22;27089;50.022;7.604;2023-02-23T00:02:54;8.90;99.90
41344;DHT22;27089;50.022;7.604;2023-02-23T00:05:23;8.80;99.90
41344;DHT22;27089;50.022;7.604;2023-02-23T00:07:51;8.80;99.90
41344;DHT22;27089;50.022;7.604;2023-02-23T00:10:19;8.80;99.90
41344;DHT22;27089;50.022;7.604;2023-02-23T00:12:50;8.80;99.90
41344;DHT22;27089;50.022;7.604;2023-02-23T00:15:17;8.80;99.90
41344;DHT22;27089;50.022;7.604;2023-02-23T00:17:44;8.80;99.90
41344;DHT22;27089;50.022;7.604;2023-02-23T00:20:13;8.80;99.90
41344;DHT22;27089;50.022;7.604;2023-02-23T00:22:41;8.80;99.90
41344;DHT22;27089;50.022;7.604;2023-02-23T00:25:09;8.80;99.90
41344;DHT22;27089;50.022;7.604;2023-02-23T00:27:37;8.80;99.90
41344;DHT22;27089;50.022;7.604;2023-02-23T00:30:12;8.80;99.90
41344;DHT22;27089;50.022;7.604;2023-02-23T00:32:39;8.90;99.90
41344;DHT22;27089;50.022;7.604;2023-02-23T00:35:08;8.90;99.90
41344;DHT22;27089;50.022;7.604;2023-02-23T00:37:42;8.90;99.90
41344;DHT22;27089;50.022;7.604;2023-02-23T00:40:11;8.90;99.90
41344;DHT22;27089;50.022;7.604;2023-02-23T00:42:39;8.90;99.90
41344;DHT22;27089;50.022;7.604;2023-02-23T00:45:07;8.90;99.90
41344;DHT22;27089;50.022;7.604;2023-02-23T00:47:40;8.90;99.90
41344;DHT22;27089;50.022;7.604;2023-02-23T00:50:09;8.90;99.90
41344;DHT22;27089;50.022;7.604;2023-02-23T00:52:41;8.90;99.90
41344;DHT22;27089;50.022;7.604;2023-02-23T00:55:10;8.90;99.90
41344;DHT22;27089;50.022;7.604;2023-02-23T00:57:37;8.90;99.90
41344;DHT22;27089;50.022;7.604;2023-02-23T01:00:06;8.90;99.90
41344;DHT22;27089;50.022;7.604;2023-02-23T01:02:43;8.80;99.90
41344;DHT22;27089;50.022;7.604;2023-02-23T01:05:10;8.70;99.90
41344;DHT22;27089;50.022;7.604;2023-02-23T01:07:38;8.60;99.90
41344;DHT22;27089;50.022;7.604;2023-02-23T01:10:06;8.60;99.90
41344;DHT22;27089;50.022;7.604;2023-02-23T01:12:45;8.60;99.90
41344;DHT22;27089;50.022;7.604;2023-02-23T01:15:13;8.60;99.90
41344;DHT22;27089;50.022;7.604;2023-02-23T01:17:40;8.60;99.90
41344;DHT22;27089;50.022;7.604;2023-02-23T01:20:11;8.50;99.90
41344;DHT22;27089;50.022;7.604;2023-02-23T01:22:43;8.50;99.90
41344;DHT22;27089;50.022;7.604;2023-02-23T01:25:10;8.50;99.90
41344;DHT22;27089;50.022;7.604;2023-02-23T01:27:38;8.50;99.90
41344;DHT22;27089;50.022;7.604;2023-02-23T01:30:07;8.50;99.90
41344;DHT22;27089;50.022;7.604;2023-02-23T01:32:35;8.50;99.90
41344;DHT22;27089;50.022;7.604;2023-02-23T01:35:04;8.50;99.90
41344;DHT22;27089;50.022;7.604;2023-02-23T01:37:35;8.50;99.90
41344;DHT22;27089;50.022;7.604;2023-02-23T01:40:07;8.50;99.90
41344;DHT22;27089;50.022;7.604;2023-02-23T01:42:38;8.50;99.90
41344;DHT22;27089;50.022;7.604;2023-02-23T01:45:25;8.60;99.90
41344;DHT22;27089;50.022;7.604;2023-02-23T01:47:55;8.60;99.90
41344;DHT22;27089;50.022;7.604;2023-02-23T01:50:28;8.70;99.90
41344;DHT22;27089;50.022;7.604;2023-02-23T01:52:58;8.70;99.90
41344;DHT22;27089;50.022;7.604;2023-02-23T01:55:26;8.70;99.90
41344;DHT22;27089;50.022;7.604;2023-02-23T01:58:00;8.70;99.90
41344;DHT22;27089;50.022;7.604;2023-02-23T02:00:28;8.70;99.90
41344;DHT22;27089;50.022;7.604;2023-02-23T02:02:58;8.70;99.90
41344;DHT22;27089;50.022;7.604;2023-02-23T02:05:28;8.70;99.90
41344;DHT22;27089;50.022;7.604;2023-02-23T02:07:57;8.70;99.90
41344;DHT22;27089;50.022;7.604;2023-02-23T02:10:26;8.70;99.90
41344;DHT22;27089;50.022;7.604;2023-02-23T02:13:10;8.70;99.90
41344;DHT22;27089;50.022;7.604;2023-02-23T02:18:31;8.70;99.90
41344;DHT22;27089;50.022;7.604;2023-02-23T02:21:30;8.70;99.90
41344;DHT22;27089;50.022;7.604;2023-02-23T02:24:37;8.70;99.90
41344;DHT22;27089;50.022;7.604;2023-02-23T02:27:19;8.70;99.90
41344;DHT22;27089;50.022;7.604;2023-02-23T02:33:18;8.70;99.90
41344;DHT22;27089;50.022;7.604;2023-02-23T02:39:03;8.70;99.90
41344;DHT22;27089;50.022;7.604;2023-02-23T02:41:42;8.70;99.90
41344;DHT22;27089;50.022;7.604;2023-02-23T02:44:16;8.70;99.90
41344;DHT22;27089;50.022;7.604;2023-02-23T02:46:46;8.70;99.90
41344;DHT22;27089;50.022;7.604;2023-02-23T02:49:21;8.70;99.90
41344;DHT22;27089;50.022;7.604;2023-02-23T02:51:56;8.80;99.90
41344;DHT22;27089;50.022;7.604;2023-02-23T02:54:29;8.80;99.90
41344;DHT22;27089;50.022;7.604;2023-02-23T02:57:00;8.80;99.90
41344;DHT22;27089;50.022;7.604;2023-02-23T02:59:29;8.80;99.90
41344;DHT22;27089;50.022;7.604;2023-02-23T03:02:18;8.80;99.90
41344;DHT22;27089;50.022;7.604;2023-02-23T03:05:12;8.70;99.90
41344;DHT22;27089;50.022;7.604;2023-02-23T03:08:03;8.70;99.90
41344;DHT22;27089;50.022;7.604;2023-02-23T03:10:55;8.70;99.90
41344;DHT22;27089;50.022;7.604;2023-02-23T03:13:47;8.70;99.90
41344;DHT22;27089;50.022;7.604;2023-02-23T03:16:42;8.70;99.90
41344;DHT22;27089;50.022;7.604;2023-02-23T03:19:35;8.70;99.90
41344;DHT22;27089;50.022;7.604;2023-02-23T03:22:24;8.70;99.90
41344;DHT22;27089;50.022;7.604;2023-02-23T03:25:13;8.80;99.90
41344;DHT22;27089;50.022;7.604;2023-02-23T03:28:07;8.80;99.90
41344;DHT22;27089;50.022;7.604;2023-02-23T03:31:00;8.80;99.90
41344;DHT22;27089;50.022;7.604;2023-02-23T03:33:50;8.90;99.90
41344;DHT22;27089;50.022;7.604;2023-02-23T03:36:38;8.90;99.90
41344;DHT22;27089;50.022;7.604;2023-02-23T03:39:28;8.90;99.90
41344;DHT22;27089;50.022;7.604;2023-02-23T03:42:19;8.90;99.90
41344;DHT22;27089;50.022;7.604;2023-02-23T03:45:08;8.90;99.90
41344;DHT22;27089;50.022;7.604;2023-02-23T03:47:54;8.90;99.90
41344;DHT22;27089;50.022;7.604;2023-02-23T03:50:42;8.90;99.90
41344;DHT22;27089;50.022;7.604;2023-02-23T03:53:34;8.90;99.90
41344;DHT22;27089;50.022;7.604;2023-02-23T03:56:24;8.90;99.90
41344;DHT22;27089;50.022;7.604;2023-02-23T03:59:11;8.90;99.90
41344;DHT22;27089;50.022;7.604;2023-02-23T04:01:58;8.90;99.90
41344;DHT22;27089;50.022;7.604;2023-02-23T04:04:44;8.90;99.90
41344;DHT22;27089;50.022;7.604;2023-02-23T04:07:30;8.80;99.90
41344;DHT22;27089;50.022;7.604;2023-02-23T04:10:17;8.80;99.90
41344;DHT22;27089;50.022;7.604;2023-02-23T04:13:05;8.80;99.90
41344;DHT22;27089;50.022;7.604;2023-02-23T04:15:49;8.70;99.90
41344;DHT22;27089;50.022;7.604;2023-02-23T04:18:21;8.70;99.90
41344;DHT22;27089;50.022;7.604;2023-02-23T04:20:49;8.80;99.90
41344;DHT22;27089;50.022;7.604;2023-02-23T04:23:16;8.80;99.90
41344;DHT22;27089;50.022;7.604;2023-02-23T04:25:43;8.80;99.90
41344;DHT22;27089;50.022;7.604;2023-02-23T04:28:10;8.80;99.90
41344;DHT22;27089;50.022;7.604;2023-02-23T04:30:37;8.80;99.90
41344;DHT22;27089;50.022;7.604;2023-02-23T04:33:04;8.80;99.90
41344;DHT22;27089;50.022;7.604;2023-02-23T04:35:32;8.70;99.90
41344;DHT22;27089;50.022;7.604;2023-02-23T04:38:00;8.70;99.90
41344;DHT22;27089;50.022;7.604;2023-02-23T04:40:27;8.70;99.90
41344;DHT22;27089;50.022;7.604;2023-02-23T04:42:54;8.70;99.90
41344;DHT22;27089;50.022;7.604;2023-02-23T04:45:22;8.70;99.90
41344;DHT22;27089;50.022;7.604;2023-02-23T04:47:50;8.70;99.90
41344;DHT22;27089;50.022;7.604;2023-02-23T04:50:17;8.70;99.90
41344;DHT22;27089;50.022;7.604;2023-02-23T04:52:46;8.70;99.90
41344;DHT22;27089;50.022;7.604;2023-02-23T04:55:18;8.70;99.90
41344;DHT22;27089;50.022;7.604;2023-02-23T04:57:46;8.70;99.90
41344;DHT22;27089;50.022;7.604;2023-02-23T05:00:14;8.80;99.90
41344;DHT22;27089;50.022;7.604;2023-02-23T05:02:41;8.80;99.90
41344;DHT22;27089;50.022;7.604;2023-02-23T05:05:10;8.80;99.90
41344;DHT22;27089;50.022;7.604;2023-02-23T05:07:37;8.70;99.90
41344;DHT22;27089;50.022;7.604;2023-02-23T05:10:06;8.70;99.90
41344;DHT22;27089;50.022;7.604;2023-02-23T05:12:34;8.70;99.90
41344;DHT22;27089;50.022;7.604;2023-02-23T05:15:01;8.70;99.90
41344;DHT22;27089;50.022;7.604;2023-02-23T05:17:28;8.70;99.90
41344;DHT22;27089;50.022;7.604;2023-02-23T05:19:55;8.70;99.90
41344;DHT22;27089;50.022;7.604;2023-02-23T05:22:22;8.70;99.90
41344;DHT22;27089;50.022;7.604;2023-02-23T05:24:50;8.80;99.90
41344;DHT22;27089;50.022;7.604;2023-02-23T05:27:18;8.80;99.90
41344;DHT22;27089;50.022;7.604;2023-02-23T05:29:45;8.80;99.90
41344;DHT22;27089;50.022;7.604;2023-02-23T05:32:12;8.90;99.90
41344;DHT22;27089;50.022;7.604;2023-02-23T05:34:39;8.90;99.90
41344;DHT22;27089;50.022;7.604;2023-02-23T05:37:06;8.90;99.90
41344;DHT22;27089;50.022;7.604;2023-02-23T05:39:33;8.80;99.90
41344;DHT22;27089;50.022;7.604;2023-02-23T05:42:00;8.80;99.90
41344;DHT22;27089;50.022;7.604;2023-02-23T05:44:29;8.80;99.90
41344;DHT22;27089;50.022;7.604;2023-02-23T05:46:56;8.80;99.90
41344;DHT22;27089;50.022;7.604;2023-02-23T05:49:23;8.80;99.90
41344;DHT22;27089;50.022;7.604;2023-02-23T05:51:50;8.80;99.90
41344;DHT22;27089;50.022;7.604;2023-02-23T05:54:17;8.80;99.90
41344;DHT22;27089;50.022;7.604;2023-02-23T05:56:44;8.80;99.90
41344;DHT22;27089;50.022;7.604;2023-02-23T05:59:11;8.80;99.90
41344;DHT22;27089;50.022;7.604;2023-02-23T06:01:39;8.80;99.90
41344;DHT22;27089;50.022;7.604;2023-02-23T06:04:06;8.80;99.90
41344;DHT22;27089;50.022;7.604;2023-02-23T06:06:33;8.80;99.90
41344;DHT22;27089;50.022;7.604;2023-02-23T06:09:01;8.80;99.90
41344;DHT22;27089;50.022;7.604;2023-02-23T06:11:29;8.80;99.90
41344;DHT22;27089;50.022;7.604;2023-02-23T06:13:57;8.80;99.90
41344;DHT22;27089;50.022;7.604;2023-02-23T06:16:25;8.80;99.90
41344;DHT22;27089;50.022;7.604;2023-02-23T06:18:55;8.80;99.90
41344;DHT22;27089;50.022;7.604;2023-02-23T06:21:22;8.80;99.90
41344;DHT22;27089;50.022;7.604;2023-02-23T06:23:49;8.80;99.90
41344;DHT22;27089;50.022;7.604;2023-02-23T06:26:19;8.80;99.90
41344;DHT22;27089;50.022;7.604;2023-02-23T06:28:46;8.80;99.90
41344;DHT22;27089;50.022;7.604;2023-02-23T06:31:13;8.90;99.90
41344;DHT22;27089;50.022;7.604;2023-02-23T06:33:40;8.90;99.90
41344;DHT22;27089;50.022;7.604;2023-02-23T06:36:08;8.90;99.90
41344;DHT22;27089;50.022;7.604;2023-02-23T06:38:36;9.00;99.90
41344;DHT22;27089;50.022;7.604;2023-02-23T06:41:06;9.00;99.90
41344;DHT22;27089;50.022;7.604;2023-02-23T06:43:33;9.00;99.90
41344;DHT22;27089;50.022;7.604;2023-02-23T06:46:01;9.00;99.90
41344;DHT22;27089;50.022;7.604;2023-02-23T06:48:28;9.00;99.90
41344;DHT22;27089;50.022;7.604;2023-02-23T06:50:57;9.00;99.90
41344;DHT22;27089;50.022;7.604;2023-02-23T06:53:26;9.00;99.90
41344;DHT22;27089;50.022;7.604;2023-02-23T06:55:53;9.00;99.90
41344;DHT22;27089;50.022;7.604;2023-02-23T06:58:20;9.00;99.90
41344;DHT22;27089;50.022;7.604;2023-02-23T07:00:47;9.00;99.90
41344;DHT22;27089;50.022;7.604;2023-02-23T07:03:14;9.00;99.90
41344;DHT22;27089;50.022;7.604;2023-02-23T07:05:43;9.00;99.90
41344;DHT22;27089;50.022;7.604;2023-02-23T07:08:10;9.00;99.90
41344;DHT22;27089;50.022;7.604;2023-02-23T07:10:39;9.00;99.90
41344;DHT22;27089;50.022;7.604;2023-02-23T07:13:06;9.00;99.90
41344;DHT22;27089;50.022;7.604;2023-02-23T07:15:35;9.10;99.90
41344;DHT22;27089;50.022;7.604;2023-02-23T07:18:02;9.10;99.90
41344;DHT22;27089;50.022;7.604;2023-02-23T07:20:29;9.10;99.90
41344;DHT22;27089;50.022;7.604;2023-02-23T07:22:57;9.10;99.90
41344;DHT22;27089;50.022;7.604;2023-02-23T07:25:25;9.10;99.90
41344;DHT22;27089;50.022;7.604;2023-02-23T07:27:53;9.20;99.90
41344;DHT22;27089;50.022;7.604;2023-02-23T07:30:21;9.20;99.90
41344;DHT22;27089;50.022;7.604;2023-02-23T07:32:49;9.20;99.90
41344;DHT22;27089;50.022;7.604;2023-02-23T07:35:16;9.30;99.90
41344;DHT22;27089;50.022;7.604;2023-02-23T07:37:43;9.30;99.90
41344;DHT22;27089;50.022;7.604;2023-02-23T07:40:11;9.30;99.90
41344;DHT22;27089;50.022;7.604;2023-02-23T07:42:38;9.40;99.90
41344;DHT22;27089;50.022;7.604;2023-02-23T07:45:08;9.50;99.90
41344;DHT22;27089;50.022;7.604;2023-02-23T07:47:35;9.60;99.90
41344;DHT22;27089;50.022;7.604;2023-02-23T07:50:05;9.60;99.90
41344;DHT22;27089;50.022;7.604;2023-02-23T07:52:35;9.60;99.90
41344;DHT22;27089;50.022;7.604;2023-02-23T07:55:03;9.60;99.90
41344;DHT22;27089;50.022;7.604;2023-02-23T07:57:29;9.70;99.90
41344;DHT22;27089;50.022;7.604;2023-02-23T07:59:56;9.70;99.90
41344;DHT22;27089;50.022;7.604;2023-02-23T08:02:25;9.70;99.90
41344;DHT22;27089;50.022;7.604;2023-02-23T08:04:53;9.80;99.90
41344;DHT22;27089;50.022;7.604;2023-02-23T08:07:20;9.80;99.90
41344;DHT22;27089;50.022;7.604;2023-02-23T08:09:48;9.90;99.90
41344;DHT22;27089;50.022;7.604;2023-02-23T08:12:14;10.00;99.90
41344;DHT22;27089;50.022;7.604;2023-02-23T08:14:42;10.10;99.90
41344;DHT22;27089;50.022;7.604;2023-02-23T08:17:09;10.10;99.90
41344;DHT22;27089;50.022;7.604;2023-02-23T08:19:38;10.20;99.90
41344;DHT22;27089;50.022;7.604;2023-02-23T08:22:05;10.30;99.90
41344;DHT22;27089;50.022;7.604;2023-02-23T08:24:33;10.40;99.90
41344;DHT22;27089;50.022;7.604;2023-02-23T08:27:01;10.40;99.90
41344;DHT22;27089;50.022;7.604;2023-02-23T08:29:28;10.40;99.90
41344;DHT22;27089;50.022;7.604;2023-02-23T08:31:55;10.40;99.90
41344;DHT22;27089;50.022;7.604;2023-02-23T08:34:22;10.40;99.90
41344;DHT22;27089;50.022;7.604;2023-02-23T08:36:50;10.40;99.90
41344;DHT22;27089;50.022;7.604;2023-02-23T08:39:18;10.40;99.90
41344;DHT22;27089;50.022;7.604;2023-02-23T08:41:45;10.40;99.90
41344;DHT22;27089;50.022;7.604;2023-02-23T08:44:12;10.30;99.90
41344;DHT22;27089;50.022;7.604;2023-02-23T08:46:39;10.40;99.90
41344;DHT22;27089;50.022;7.604;2023-02-23T08:49:07;10.40;99.90
41344;DHT22;27089;50.022;7.604;2023-02-23T08:51:35;10.30;99.90
41344;DHT22;27089;50.022;7.604;2023-02-23T08:54:03;10.30;99.90
41344;DHT22;27089;50.022;7.604;2023-02-23T08:56:34;10.30;99.90
41344;DHT22;27089;50.022;7.604;2023-02-23T08:59:01;10.30;99.90
41344;DHT22;27089;50.022;7.604;2023-02-23T09:01:28;10.20;99.90
41344;DHT22;27089;50.022;7.604;2023-02-23T09:03:55;10.20;99.90
41344;DHT22;27089;50.022;7.604;2023-02-23T09:06:23;10.20;99.90
41344;DHT22;27089;50.022;7.604;2023-02-23T09:08:51;10.30;99.90
41344;DHT22;27089;50.022;7.604;2023-02-23T09:11:20;10.40;99.90
41344;DHT22;27089;50.022;7.604;2023-02-23T09:13:47;10.50;99.90
41344;DHT22;27089;50.022;7.604;2023-02-23T09:16:14;10.50;99.90
41344;DHT22;27089;50.022;7.604;2023-02-23T09:18:41;10.50;99.90
41344;DHT22;27089;50.022;7.604;2023-02-23T09:21:14;10.50;99.90
41344;DHT22;27089;50.022;7.604;2023-02-23T09:23:43;10.50;99.90
41344;DHT22;27089;50.022;7.604;2023-02-23T09:26:11;10.60;99.90
41344;DHT22;27089;50.022;7.604;2023-02-23T09:28:39;10.60;99.90
41344;DHT22;27089;50.022;7.604;2023-02-23T09:31:07;10.60;99.90
41344;DHT22;27089;50.022;7.604;2023-02-23T09:33:34;10.60;99.90
41344;DHT22;27089;50.022;7.604;2023-02-23T09:36:04;10.60;99.90
41344;DHT22;27089;50.022;7.604;2023-02-23T09:38:32;10.70;99.90
41344;DHT22;27089;50.022;7.604;2023-02-23T09:40:59;10.80;99.90
41344;DHT22;27089;50.022;7.604;2023-02-23T09:43:30;10.90;99.90
41344;DHT22;27089;50.022;7.604;2023-02-23T09:46:06;11.10;99.90
41344;DHT22;27089;50.022;7.604;2023-02-23T09:48:36;11.10;99.90
41344;DHT22;27089;50.022;7.604;2023-02-23T09:51:05;11.20;99.90
41344;DHT22;27089;50.022;7.604;2023-02-23T09:53:37;11.20;99.90
41344;DHT22;27089;50.022;7.604;2023-02-23T09:56:11;11.20;99.90
41344;DHT22;27089;50.022;7.604;2023-02-23T09:58:39;11.30;99.90
41344;DHT22;27089;50.022;7.604;2023-02-23T10:01:42;11.30;99.90
41344;DHT22;27089;50.022;7.604;2023-02-23T10:04:18;11.30;99.90
41344;DHT22;27089;50.022;7.604;2023-02-23T10:06:52;11.30;99.90
41344;DHT22;27089;50.022;7.604;2023-02-23T10:09:30;11.40;99.90
41344;DHT22;27089;50.022;7.604;2023-02-23T10:12:07;11.40;99.90
41344;DHT22;27089;50.022;7.604;2023-02-23T10:15:00;11.40;99.90
41344;DHT22;27089;50.022;7.604;2023-02-23T10:17:36;11.30;99.90
41344;DHT22;27089;50.022;7.604;2023-02-23T10:20:17;11.20;99.90
41344;DHT22;27089;50.022;7.604;2023-02-23T10:22:46;11.20;99.90
41344;DHT22;27089;50.022;7.604;2023-02-23T10:25:16;11.10;99.90
41344;DHT22;27089;50.022;7.604;2023-02-23T10:27:48;11.20;99.90
41344;DHT22;27089;50.022;7.604;2023-02-23T10:30:19;11.20;99.90
41344;DHT22;27089;50.022;7.604;2023-02-23T10:32:52;11.20;99.90
41344;DHT22;27089;50.022;7.604;2023-02-23T10:35:22;11.30;99.90
41344;DHT22;27089;50.022;7.604;2023-02-23T10:37:50;11.40;99.90
41344;DHT22;27089;50.022;7.604;2023-02-23T10:40:20;11.40;99.90
41344;DHT22;27089;50.022;7.604;2023-02-23T10:42:48;11.50;99.90
41344;DHT22;27089;50.022;7.604;2023-02-23T10:45:17;11.60;99.90
41344;DHT22;27089;50.022;7.604;2023-02-23T10:47:52;11.70;99.90
41344;DHT22;27089;50.022;7.604;2023-02-23T10:50:20;11.80;99.90
41344;DHT22;27089;50.022;7.604;2023-02-23T10:52:54;12.00;99.90
41344;DHT22;27089;50.022;7.604;2023-02-23T10:55:24;12.10;99.90
41344;DHT22;27089;50.022;7.604;2023-02-23T10:58:01;12.20;99.90
41344;DHT22;27089;50.022;7.604;2023-02-23T11:00:30;12.40;99.90
41344;DHT22;27089;50.022;7.604;2023-02-23T11:03:00;12.70;99.90
41344;DHT22;27089;50.022;7.604;2023-02-23T11:05:35;12.80;99.90
41344;DHT22;27089;50.022;7.604;2023-02-23T11:08:22;12.90;99.90
41344;DHT22;27089;50.022;7.604;2023-02-23T11:11:01;12.90;99.90
41344;DHT22;27089;50.022;7.604;2023-02-23T11:13:34;13.00;99.90
41344;DHT22;27089;50.022;7.604;2023-02-23T11:16:03;13.00;99.90
41344;DHT22;27089;50.022;7.604;2023-02-23T11:18:32;13.10;99.90
41344;DHT22;27089;50.022;7.604;2023-02-23T11:20:59;13.20;99.90
41344;DHT22;27089;50.022;7.604;2023-02-23T11:23:29;13.20;99.90
41344;DHT22;27089;50.022;7.604;2023-02-23T11:26:00;13.20;99.90
41344;DHT22;27089;50.022;7.604;2023-02-23T11:28:30;13.30;99.90
41344;DHT22;27089;50.022;7.604;2023-02-23T11:31:01;13.20;99.90
41344;DHT22;27089;50.022;7.604;2023-02-23T11:33:32;13.10;99.90
41344;DHT22;27089;50.022;7.604;2023-02-23T11:36:13;12.80;99.90
41344;DHT22;27089;50.022;7.604;2023-02-23T11:38:41;12.80;99.90
41344;DHT22;27089;50.022;7.604;2023-02-23T11:41:19;12.70;99.90
41344;DHT22;27089;50.022;7.604;2023-02-23T11:43:50;12.70;99.90
41344;DHT22;27089;50.022;7.604;2023-02-23T11:46:20;12.80;99.90
41344;DHT22;27089;50.022;7.604;2023-02-23T11:48:51;12.90;99.90
41344;DHT22;27089;50.022;7.604;2023-02-23T11:51:25;13.00;99.90
41344;DHT22;27089;50.022;7.604;2023-02-23T11:53:53;13.10;99.90
41344;DHT22;27089;50.022;7.604;2023-02-23T11:56:22;13.00;99.90
41344;DHT22;27089;50.022;7.604;2023-02-23T11:58:52;12.90;99.90
41344;DHT22;27089;50.022;7.604;2023-02-23T12:01:23;12.80;99.90
41344;DHT22;27089;50.022;7.604;2023-02-23T12:04:02;12.50;99.90
41344;DHT22;27089;50.022;7.604;2023-02-23T12:06:30;12.10;99.90
41344;DHT22;27089;50.022;7.604;2023-02-23T12:09:04;11.80;99.90
41344;DHT22;27089;50.022;7.604;2023-02-23T12:11:35;11.70;99.90
41344;DHT22;27089;50.022;7.604;2023-02-23T12:14:06;11.60;99.90
41344;DHT22;27089;50.022;7.604;2023-02-23T12:16:38;11.50;99.90
41344;DHT22;27089;50.022;7.604;2023-02-23T12:19:19;11.40;99.90
41344;DHT22;27089;50.022;7.604;2023-02-23T12:21:54;11.50;99.90
41344;DHT22;27089;50.022;7.604;2023-02-23T12:24:30;11.60;99.90
41344;DHT22;27089;50.022;7.604;2023-02-23T12:27:03;11.70;99.90
41344;DHT22;27089;50.022;7.604;2023-02-23T12:29:46;11.70;99.90
41344;DHT22;27089;50.022;7.604;2023-02-23T12:32:18;11.70;99.90
41344;DHT22;27089;50.022;7.604;2023-02-23T12:34:50;11.80;99.90
41344;DHT22;27089;50.022;7.604;2023-02-23T12:37:29;11.80;99.90
41344;DHT22;27089;50.022;7.604;2023-02-23T12:40:10;11.90;99.90
41344;DHT22;27089;50.022;7.604;2023-02-23T12:42:44;11.90;99.90
41344;DHT22;27089;50.022;7.604;2023-02-23T12:45:19;12.10;99.90
41344;DHT22;27089;50.022;7.604;2023-02-23T12:47:50;12.10;99.90
41344;DHT22;27089;50.022;7.604;2023-02-23T12:50:25;12.20;99.90
41344;DHT22;27089;50.022;7.604;2023-02-23T12:52:56;12.10;99.90
41344;DHT22;27089;50.022;7.604;2023-02-23T12:55:32;12.10;99.90
41344;DHT22;27089;50.022;7.604;2023-02-23T12:58:07;12.20;99.90
41344;DHT22;27089;50.022;7.604;2023-02-23T13:00:52;12.20;99.90
41344;DHT22;27089;50.022;7.604;2023-02-23T13:03:41;12.30;99.90
41344;DHT22;27089;50.022;7.604;2023-02-23T13:06:19;12.40;99.90
41344;DHT22;27089;50.022;7.604;2023-02-23T13:09:10;12.40;99.90
41344;DHT22;27089;50.022;7.604;2023-02-23T13:11:55;12.30;99.90
41344;DHT22;27089;50.022;7.604;2023-02-23T13:14:31;12.30;99.90
41344;DHT22;27089;50.022;7.604;2023-02-23T13:17:04;12.20;99.90
41344;DHT22;27089;50.022;7.604;2023-02-23T13:19:37;12.10;99.90
41344;DHT22;27089;50.022;7.604;2023-02-23T13:22:22;12.10;99.90
41344;DHT22;27089;50.022;7.604;2023-02-23T13:24:54;12.20;99.90
41344;DHT22;27089;50.022;7.604;2023-02-23T13:27:26;12.20;99.90
41344;DHT22;27089;50.022;7.604;2023-02-23T13:29:57;12.00;99.90
41344;DHT22;27089;50.022;7.604;2023-02-23T13:32:26;12.00;99.90
41344;DHT22;27089;50.022;7.604;2023-02-23T13:34:57;11.90;99.90
41344;DHT22;27089;50.022;7.604;2023-02-23T13:37:30;11.80;99.90
41344;DHT22;27089;50.022;7.604;2023-02-23T13:40:07;11.70;99.90
41344;DHT22;27089;50.022;7.604;2023-02-23T13:42:44;11.60;99.90
41344;DHT22;27089;50.022;7.604;2023-02-23T13:45:29;11.50;99.90
41344;DHT22;27089;50.022;7.604;2023-02-23T13:48:01;11.30;99.90
41344;DHT22;27089;50.022;7.604;2023-02-23T13:50:34;11.30;99.90
41344;DHT22;27089;50.022;7.604;2023-02-23T13:53:27;11.20;99.90
41344;DHT22;27089;50.022;7.604;2023-02-23T13:55:59;11.20;99.90
41344;DHT22;27089;50.022;7.604;2023-02-23T13:58:29;11.20;99.90
41344;DHT22;27089;50.022;7.604;2023-02-23T14:01:09;11.30;99.90
41344;DHT22;27089;50.022;7.604;2023-02-23T14:03:43;11.40;99.90
41344;DHT22;27089;50.022;7.604;2023-02-23T14:06:15;11.50;99.90
41344;DHT22;27089;50.022;7.604;2023-02-23T14:08:51;11.60;99.90
41344;DHT22;27089;50.022;7.604;2023-02-23T14:11:42;11.60;99.90
41344;DHT22;27089;50.022;7.604;2023-02-23T14:20:43;11.70;99.90
41344;DHT22;27089;50.022;7.604;2023-02-23T14:23:28;11.70;99.90
41344;DHT22;27089;50.022;7.604;2023-02-23T14:29:24;11.70;99.90
41344;DHT22;27089;50.022;7.604;2023-02-23T14:34:49;11.80;99.90
41344;DHT22;27089;50.022;7.604;2023-02-23T14:37:25;11.90;99.90
41344;DHT22;27089;50.022;7.604;2023-02-23T14:39:54;11.90;99.90
41344;DHT22;27089;50.022;7.604;2023-02-23T14:42:25;11.90;99.90
41344;DHT22;27089;50.022;7.604;2023-02-23T14:44:54;11.80;99.90
41344;DHT22;27089;50.022;7.604;2023-02-23T14:47:23;11.80;99.90
41344;DHT22;27089;50.022;7.604;2023-02-23T14:49:55;11.80;99.90
41344;DHT22;27089;50.022;7.604;2023-02-23T14:52:24;11.70;99.90
41344;DHT22;27089;50.022;7.604;2023-02-23T14:55:18;11.70;99.90
41344;DHT22;27089;50.022;7.604;2023-02-23T14:57:48;11.70;99.90
41344;DHT22;27089;50.022;7.604;2023-02-23T15:00:19;11.70;99.90
41344;DHT22;27089;50.022;7.604;2023-02-23T15:02:58;11.60;99.90
41344;DHT22;27089;50.022;7.604;2023-02-23T15:05:28;11.60;99.90
41344;DHT22;27089;50.022;7.604;2023-02-23T15:07:59;11.70;99.90
41344;DHT22;27089;50.022;7.604;2023-02-23T15:10:31;11.70;99.90
41344;DHT22;27089;50.022;7.604;2023-02-23T15:13:00;11.70;99.90
41344;DHT22;27089;50.022;7.604;2023-02-23T15:15:33;11.70;99.90
41344;DHT22;27089;50.022;7.604;2023-02-23T15:18:02;11.60;99.90
41344;DHT22;27089;50.022;7.604;2023-02-23T15:20:32;11.40;99.90
41344;DHT22;27089;50.022;7.604;2023-02-23T15:23:01;11.30;99.90
41344;DHT22;27089;50.022;7.604;2023-02-23T15:25:34;11.10;99.90
41344;DHT22;27089;50.022;7.604;2023-02-23T15:28:21;11.00;99.90
41344;DHT22;27089;50.022;7.604;2023-02-23T15:30:51;10.90;99.90
41344;DHT22;27089;50.022;7.604;2023-02-23T15:33:19;10.90;99.90
41344;DHT22;27089;50.022;7.604;2023-02-23T15:35:51;10.80;99.90
41344;DHT22;27089;50.022;7.604;2023-02-23T15:38:21;10.80;99.90
41344;DHT22;27089;50.022;7.604;2023-02-23T15:40:52;10.80;99.90
41344;DHT22;27089;50.022;7.604;2023-02-23T15:43:21;10.70;99.90
41344;DHT22;27089;50.022;7.604;2023-02-23T15:45:50;10.70;99.90
41344;DHT22;27089;50.022;7.604;2023-02-23T15:48:19;10.70;99.90
41344;DHT22;27089;50.022;7.604;2023-02-23T15:50:49;10.60;99.90
41344;DHT22;27089;50.022;7.604;2023-02-23T15:53:25;10.50;99.90
41344;DHT22;27089;50.022;7.604;2023-02-23T15:55:56;10.50;99.90
41344;DHT22;27089;50.022;7.604;2023-02-23T15:58:29;10.40;99.90
41344;DHT22;27089;50.022;7.604;2023-02-23T16:00:57;10.40;99.90
41344;DHT22;27089;50.022;7.604;2023-02-23T16:03:31;10.30;99.90
41344;DHT22;27089;50.022;7.604;2023-02-23T16:06:01;10.30;99.90
41344;DHT22;27089;50.022;7.604;2023-02-23T16:08:28;10.30;99.90
41344;DHT22;27089;50.022;7.604;2023-02-23T16:11:03;10.30;99.90
41344;DHT22;27089;50.022;7.604;2023-02-23T16:13:34;10.30;99.90
41344;DHT22;27089;50.022;7.604;2023-02-23T16:16:04;10.20;99.90
41344;DHT22;27089;50.022;7.604;2023-02-23T16:18:39;10.20;99.90
41344;DHT22;27089;50.022;7.604;2023-02-23T16:21:10;10.20;99.90
41344;DHT22;27089;50.022;7.604;2023-02-23T16:23:43;10.10;99.90
41344;DHT22;27089;50.022;7.604;2023-02-23T16:26:17;10.00;99.90
41344;DHT22;27089;50.022;7.604;2023-02-23T16:28:53;10.00;99.90
41344;DHT22;27089;50.022;7.604;2023-02-23T16:31:23;9.90;99.90